Time;durP1;ratioP1;P1;durP2;ratioP2;P2;SDS_P1;SDS_P2;PMS_P1;PMS_P2;Temp;Humidity;BMP_temperature;BMP_pressure;BME280_temperature;BME280_humidity;BME280_pressure;Samples;Min_cycle;Max_cycle;Signal;HPM_P1;HPM_P2
2022/04/17 00:00:52;;;;;;;4.45;1.98;;;;;;;10.43;37.97;102003.13;4035108;29;20065;-66
2022/04/17 00:02:55;;;;;;;1.70;1.40;;;;;;;10.41;37.33;102004.78;4036496;29;20078;-66
2022/04/17 00:04:59;;;;;;;5.22;1.80;;;;;;;10.39;37.06;101996.91;4036321;29;20037;-65
2022/04/17 00:07:04;;;;;;;3.93;2.00;;;;;;;10.33;37.94;101996.66;4034605;29;20065;-65
2022/04/17 00:09:08;;;;;;;4.50;1.95;;;;;;;10.36;37.90;102001.13;4036432;29;20301;-65
2022/04/17 00:11:11;;;;;;;2.10;1.60;;;;;;;10.21;38.27;101999.63;4034913;29;20045;-66
2022/04/17 00:13:15;;;;;;;3.42;1.70;;;;;;;10.18;37.83;101998.59;4035046;29;20048;-66
2022/04/17 00:15:19;;;;;;;3.03;1.83;;;;;;;10.23;38.07;101997.09;4036256;29;20053;-66
2022/04/17 00:17:22;;;;;;;7.03;1.80;;;;;;;10.28;37.66;101999.06;4034468;29;20097;-65
2022/04/17 00:19:25;;;;;;;4.15;1.80;;;;;;;10.32;37.93;101987.06;4024519;29;20045;-66
2022/04/17 00:21:28;;;;;;;5.05;2.25;;;;;;;10.19;38.31;101979.59;4034714;29;20049;-65
2022/04/17 00:23:33;;;;;;;4.70;1.83;;;;;;;10.19;38.18;101983.09;4034682;29;20049;-65
2022/04/17 00:25:36;;;;;;;;;;;;;;;10.07;38.21;101982.59;4039009;29;20037;-66
2022/04/17 00:27:40;;;;;;;2.78;1.70;;;;;;;10.14;37.91;101980.28;4024035;29;19976;-66
2022/04/17 00:29:43;;;;;;;4.72;2.03;;;;;;;10.19;38.21;101977.00;4024532;29;20118;-65
2022/04/17 00:31:47;;;;;;;4.10;1.88;;;;;;;10.19;38.41;101969.22;4024331;29;20145;-65
2022/04/17 00:33:50;;;;;;;3.70;1.88;;;;;;;10.12;38.39;101976.75;4023294;29;20161;-65
2022/04/17 00:35:53;;;;;;;3.30;1.63;;;;;;;10.11;38.27;101967.19;4024346;29;20043;-65
2022/04/17 00:37:56;;;;;;;2.92;1.80;;;;;;;10.11;38.27;101967.19;4023896;29;20040;-65
2022/04/17 00:40:01;;;;;;;4.68;1.80;;;;;;;10.13;38.43;101969.84;4023976;29;20061;-65
2022/04/17 00:42:07;;;;;;;1.95;1.52;;;;;;;10.20;38.54;101960.59;4024176;29;20128;-65
2022/04/17 00:44:11;;;;;;;3.40;1.77;;;;;;;10.21;37.65;101960.66;4038461;29;20037;-65
2022/04/17 00:46:14;;;;;;;3.40;1.30;;;;;;;10.10;38.26;101962.84;4038297;29;20043;-65
2022/04/17 00:48:17;;;;;;;4.07;1.50;;;;;;;9.99;39.05;101969.31;4022814;29;20098;-65
2022/04/17 00:50:21;;;;;;;2.10;1.50;;;;;;;10.06;38.87;101966.13;4023153;29;20393;-65
2022/04/17 00:52:24;;;;;;;4.97;1.77;;;;;;;10.00;38.66;101959.78;4024173;29;20132;-66
2022/04/17 00:54:29;;;;;;;3.47;1.70;;;;;;;9.96;39.13;101953.59;4024077;29;20088;-66
2022/04/17 00:56:35;;;;;;;3.45;1.85;;;;;;;9.94;39.19;101957.81;4032899;29;20053;-66
2022/04/17 00:58:39;;;;;;;2.65;1.75;;;;;;;9.82;39.86;101955.59;4024212;29;20396;-66
2022/04/17 01:00:42;;;;;;;3.70;2.00;;;;;;;9.93;39.65;101950.88;4038180;29;20045;-66
2022/04/17 01:02:45;;;;;;;2.95;1.80;;;;;;;9.86;39.56;101946.25;4023933;29;20064;-66
2022/04/17 01:04:49;;;;;;;2.78;1.90;;;;;;;9.78;39.89;101952.00;4022702;29;20128;-66
2022/04/17 01:06:52;;;;;;;2.90;1.75;;;;;;;9.78;39.52;101941.63;4023424;29;20037;-66
2022/04/17 01:08:55;;;;;;;3.33;1.63;;;;;;;9.75;39.62;101946.69;4023928;29;20052;-65
2022/04/17 01:10:58;;;;;;;3.72;1.75;;;;;;;9.78;39.38;101946.81;4023808;29;20538;-65
2022/04/17 01:13:04;;;;;;;6.28;1.90;;;;;;;9.80;39.05;101946.88;4023888;29;20132;-65
2022/04/17 01:15:08;;;;;;;3.33;1.80;;;;;;;9.68;39.13;101946.34;4022706;29;20052;-65
2022/04/17 01:17:12;;;;;;;4.45;2.17;;;;;;;9.76;38.98;101945.84;4023669;29;20044;-64
2022/04/17 01:19:15;;;;;;;8.43;1.70;;;;;;;9.67;39.24;101945.47;4038013;29;20045;-65
2022/04/17 01:21:19;;;;;;;3.53;2.15;;;;;;;9.76;39.34;101943.25;4037967;29;20067;-65
2022/04/17 01:28:06;;;;;;;3.55;1.98;;;;;;;9.62;39.38;101931.41;4030744;29;20072;-65
2022/04/17 01:30:10;;;;;;;7.80;2.38;;;;;;;9.61;39.67;101935.72;4033915;29;20041;-65
2022/04/17 01:32:13;;;;;;;4.47;1.73;;;;;;;9.65;39.46;101933.25;4034116;29;20052;-67
2022/04/17 01:34:17;;;;;;;3.47;1.80;;;;;;;9.69;39.22;101933.44;4033729;29;20049;-65
2022/04/17 01:36:21;;;;;;;2.70;1.73;;;;;;;9.76;39.28;101935.47;4033787;29;20048;-65
2022/04/17 01:38:24;;;;;;;2.75;1.65;;;;;;;9.59;39.48;101928.66;4033428;29;20044;-65
2022/04/17 01:40:27;;;;;;;4.30;1.90;;;;;;;9.70;39.41;101936.94;4022275;29;20049;-65
2022/04/17 01:42:30;;;;;;;1.98;1.60;;;;;;;9.68;39.54;101931.69;4023468;29;20056;-66
2022/04/17 01:44:33;;;;;;;4.68;2.10;;;;;;;9.77;38.67;101937.25;4047954;29;20055;-65
2022/04/17 01:46:36;;;;;;;3.42;1.73;;;;;;;9.76;39.19;101940.66;4032304;29;20063;-65
2022/04/17 01:48:39;;;;;;;3.22;1.50;;;;;;;9.55;39.46;101945.84;4032548;29;20045;-65
2022/04/17 01:50:42;;;;;;;7.18;2.00;;;;;;;9.57;39.58;101944.19;4027525;29;20045;-65
2022/04/17 01:52:46;;;;;;;9.05;1.95;;;;;;;9.71;38.75;101942.19;4034825;29;20049;-66
2022/04/17 01:54:49;;;;;;;2.95;1.52;;;;;;;9.56;39.47;101941.53;4032385;29;20060;-66
2022/04/17 01:56:53;;;;;;;3.85;1.90;;;;;;;9.61;39.51;101940.03;4031990;29;20050;-66
2022/04/17 01:58:56;;;;;;;2.03;1.48;;;;;;;9.47;39.57;101935.97;4033559;29;20098;-66
2022/04/17 02:00:59;;;;;;;5.35;2.50;;;;;;;9.43;39.75;101934.94;4034870;29;20049;-66
2022/04/17 02:03:02;;;;;;;4.40;1.73;;;;;;;9.47;39.88;101931.66;4033487;29;20042;-66
2022/04/17 02:05:05;;;;;;;2.95;1.92;;;;;;;9.59;39.19;101928.66;4033486;29;20132;-66
2022/04/17 02:07:08;;;;;;;7.13;2.00;;;;;;;9.50;40.22;101936.97;4033115;29;20037;-66
2022/04/17 02:09:14;;;;;;;6.55;2.30;;;;;;;9.52;40.56;101934.44;4033406;29;20041;-66
2022/04/17 02:11:17;;;;;;;3.17;2.22;;;;;;;9.56;40.17;101931.16;4034918;29;20085;-66
2022/04/17 02:13:20;;;;;;;2.90;2.00;;;;;;;9.53;40.74;101931.91;4032330;29;20052;-66
2022/04/17 02:15:24;;;;;;;3.10;1.83;;;;;;;9.44;41.11;101926.31;4033745;29;20053;-66
2022/04/17 02:17:27;;;;;;;3.50;1.98;;;;;;;9.34;41.40;101930.22;4033137;29;20049;-66
2022/04/17 02:19:30;;;;;;;2.08;1.70;;;;;;;9.37;41.47;101919.97;4033498;29;20097;-66
2022/04/17 02:21:33;;;;;;;2.20;1.55;;;;;;;9.30;41.72;101917.06;4023193;29;20042;-66
2022/04/17 02:23:36;;;;;;;3.72;2.10;;;;;;;9.22;41.79;101917.63;4016720;29;20046;-66
2022/04/17 02:25:40;;;;;;;5.57;1.90;;;;;;;9.28;42.10;101917.00;4032241;29;20045;-66
2022/04/17 02:27:44;;;;;;;7.45;2.30;;;;;;;9.25;42.13;101909.97;4022714;29;20050;-66
2022/04/17 02:29:47;;;;;;;4.30;2.03;;;;;;;9.17;42.27;101910.44;4023174;29;20113;-66
2022/04/17 02:31:50;;;;;;;4.10;2.00;;;;;;;9.16;43.15;101908.69;4023059;29;20057;-66
2022/04/17 02:33:54;;;;;;;4.53;2.20;;;;;;;9.12;42.52;101902.47;4023115;29;20038;-66
2022/04/17 02:35:57;;;;;;;4.65;1.98;;;;;;;9.21;42.85;101897.69;4027796;29;20049;-66
2022/04/17 02:38:00;;;;;;;3.55;1.90;;;;;;;9.18;42.52;101897.53;4036770;29;20051;-66
2022/04/17 02:40:03;;;;;;;3.42;2.25;;;;;;;9.15;43.33;101896.53;4033276;29;20073;-66
2022/04/17 02:42:07;;;;;;;3.30;1.70;;;;;;;9.12;42.76;101891.22;4029539;29;20038;-66
2022/04/17 02:44:10;;;;;;;4.93;1.80;;;;;;;9.17;42.94;101894.88;4023120;29;20042;-66
2022/04/17 02:47:42;;;;;;;3.45;2.17;;;;;;;9.12;42.67;101893.81;4023003;29;20289;-66
2022/04/17 02:48:35;;;;;;;1.75;1.50;;;;;;;9.10;41.94;101893.75;4032912;29;20521;-66
2022/04/17 02:50:38;;;;;;;2.75;1.77;;;;;;;9.09;42.69;101898.03;4026925;29;20048;-66
2022/04/17 02:52:41;;;;;;;3.05;1.92;;;;;;;9.08;42.94;101892.78;4019124;29;20050;-66
2022/04/17 02:54:44;;;;;;;3.10;1.67;;;;;;;9.15;42.72;101892.22;4033209;29;20101;-66
2022/04/17 02:56:47;;;;;;;4.90;1.90;;;;;;;9.12;42.50;101891.22;4022597;29;20049;-66
2022/04/17 02:58:54;;;;;;;7.60;2.28;;;;;;;9.07;42.34;101894.50;4022949;29;20045;-66
2022/04/17 03:05:38;;;;;;;4.05;2.13;;;;;;;8.95;42.71;101899.16;4035846;29;20056;-66
2022/04/17 03:07:41;;;;;;;3.10;1.70;;;;;;;8.97;42.23;101896.63;4035401;29;20128;-67
2022/04/17 03:09:44;;;;;;;4.57;2.08;;;;;;;8.98;42.20;101895.78;4035786;29;20076;-66
2022/04/17 03:11:47;;;;;;;3.80;1.95;;;;;;;8.99;41.89;101911.41;4024341;29;20141;-66
2022/04/17 03:13:52;;;;;;;5.15;2.10;;;;;;;8.94;41.44;101902.56;4025529;29;20049;-66
2022/04/17 03:15:55;;;;;;;;;;;;;;;8.81;41.20;101908.03;4031375;29;20060;-66
2022/04/17 03:17:58;;;;;;;3.85;1.85;;;;;;;8.94;41.44;101912.94;4035297;29;19932;-66
2022/04/17 03:20:03;;;;;;;3.75;2.30;;;;;;;8.96;41.27;101923.38;4034546;29;20105;-66
2022/04/17 03:22:07;;;;;;;2.53;1.77;;;;;;;8.99;40.87;101915.72;4037126;29;20041;-66
2022/04/17 03:24:10;;;;;;;2.22;1.70;;;;;;;8.86;41.91;101914.28;4035838;29;20048;-66
2022/04/17 03:26:13;;;;;;;2.58;1.70;;;;;;;8.79;42.20;101914.84;4035630;29;20045;-66
2022/04/17 03:28:16;;;;;;;2.63;1.85;;;;;;;8.79;42.48;101917.44;4036496;29;20036;-67
2022/04/17 03:30:20;;;;;;;7.47;2.20;;;;;;;8.86;42.21;101909.09;4036920;29;20045;-66
2022/04/17 03:32:23;;;;;;;2.72;2.20;;;;;;;8.87;42.23;101913.47;4035537;29;20052;-66
2022/04/17 03:34:26;;;;;;;3.72;2.03;;;;;;;8.88;42.59;101918.72;4036763;29;20106;-66
2022/04/17 03:36:29;;;;;;;2.67;1.70;;;;;;;8.85;42.34;101912.53;4035298;29;20571;-66
2022/04/17 03:38:32;;;;;;;5.90;2.45;;;;;;;8.86;42.14;101912.59;4035042;29;20045;-66
2022/04/17 03:40:35;;;;;;;4.18;1.95;;;;;;;8.86;42.39;101909.09;4035568;29;20045;-66
2022/04/17 03:42:38;;;;;;;5.00;2.05;;;;;;;8.84;42.64;101908.16;4025204;29;20077;-67
2022/04/17 03:44:42;;;;;;;3.47;2.20;;;;;;;8.85;42.60;101913.41;4034043;29;20046;-66
2022/04/17 03:46:47;;;;;;;3.85;2.30;;;;;;;8.86;42.68;101909.09;4034595;29;20037;-66
2022/04/17 03:48:50;;;;;;;4.53;1.67;;;;;;;8.79;43.22;101912.25;4023802;29;20078;-66
2022/04/17 03:50:53;;;;;;;4.45;2.05;;;;;;;8.79;43.53;101902.78;4024965;29;20106;-66
2022/04/17 03:52:59;;;;;;;4.40;2.15;;;;;;;8.79;42.76;101897.59;4025006;29;20053;-66
2022/04/17 03:55:02;;;;;;;4.47;2.30;;;;;;;8.80;42.67;101896.75;4022892;29;20049;-66
2022/04/17 03:57:05;;;;;;;4.45;1.77;;;;;;;8.80;43.19;101885.50;4022727;29;20094;-66
2022/04/17 03:59:09;;;;;;;3.25;1.98;;;;;;;8.74;43.59;101881.81;4021753;29;20052;-66
2022/04/17 04:01:12;;;;;;;2.78;1.67;;;;;;;8.73;44.48;101881.72;4025848;29;20049;-66
2022/04/17 04:03:16;;;;;;;3.35;1.73;;;;;;;8.71;45.08;101884.25;4035094;29;20037;-66
2022/04/17 04:05:20;;;;;;;3.08;1.98;;;;;;;8.60;44.86;101884.59;4033821;29;20048;-66
2022/04/17 04:07:23;;;;;;;6.00;2.37;;;;;;;8.57;44.93;101880.16;4034832;29;20047;-66
2022/04/17 04:09:26;;;;;;;7.43;2.05;;;;;;;8.53;44.21;101878.28;4024627;29;20041;-66
2022/04/17 04:11:29;;;;;;;3.28;1.80;;;;;;;8.44;45.10;101873.56;4026925;29;20496;-66
2022/04/17 04:13:33;;;;;;;4.10;1.80;;;;;;;8.42;45.13;101875.13;4034828;29;20064;-66
2022/04/17 04:15:37;;;;;;;2.67;1.92;;;;;;;8.42;45.30;101877.72;4033873;29;20056;-66
2022/04/17 04:17:39;;;;;;;4.53;1.88;;;;;;;8.37;45.59;101874.94;4035982;29;20045;-66
2022/04/17 04:19:44;;;;;;;2.28;1.70;;;;;;;8.43;45.10;101878.63;4034913;29;20060;-66
2022/04/17 04:21:49;;;;;;;4.30;2.50;;;;;;;8.39;45.49;101885.38;4033713;29;20041;-66
2022/04/17 04:23:52;;;;;;;4.90;2.38;;;;;;;8.38;45.78;101874.13;4033635;29;20491;-66
2022/04/17 04:25:55;;;;;;;6.95;2.20;;;;;;;8.41;45.71;101875.06;4034716;29;20136;-66
2022/04/17 04:30:19;;;;;;;4.50;2.67;;;;;;;8.30;45.95;101865.09;4037707;29;20101;-66
2022/04/17 04:32:22;;;;;;;2.95;1.77;;;;;;;8.29;46.37;101875.38;4037743;29;20136;-66
2022/04/17 04:34:24;;;;;;;7.18;2.25;;;;;;;8.26;46.83;101867.47;4032523;29;20054;-66
2022/04/17 04:36:29;;;;;;;6.60;2.58;;;;;;;8.26;46.92;101870.06;4034601;29;20040;-66
2022/04/17 04:38:32;;;;;;;6.03;2.88;;;;;;;8.23;45.23;101870.81;4033095;29;20132;-66
2022/04/17 04:40:35;;;;;;;4.70;2.50;;;;;;;8.20;45.25;101878.44;4034505;29;20053;-66
2022/04/17 04:42:38;;;;;;;4.78;2.05;;;;;;;8.22;45.29;101869.06;4048809;29;20044;-67
2022/04/17 04:44:41;;;;;;;3.80;2.08;;;;;;;8.20;46.14;101873.25;4032655;29;20045;-66
2022/04/17 04:46:43;;;;;;;7.18;2.80;;;;;;;8.15;46.48;101865.28;4032740;29;20069;-66
2022/04/17 04:51:09;;;;;;;4.75;2.42;;;;;;;8.18;44.62;101887.84;4034363;29;20045;-66
2022/04/17 04:53:13;;;;;;;4.25;2.50;;;;;;;8.27;44.34;101892.59;4034297;29;20041;-66
2022/04/17 04:55:16;;;;;;;5.38;2.83;;;;;;;8.29;44.23;101899.59;4022270;29;20045;-66
2022/04/17 04:57:19;;;;;;;6.60;2.92;;;;;;;8.26;44.44;101909.81;4032319;29;20056;-66
2022/04/17 04:59:22;;;;;;;10.45;2.67;;;;;;;8.23;44.96;101904.50;4027608;29;20468;-66
2022/04/17 05:01:25;;;;;;;4.85;2.65;;;;;;;8.22;44.61;101902.75;4037886;29;20554;-66
2022/04/17 05:03:27;;;;;;;4.40;2.10;;;;;;;8.28;44.21;101902.09;4033856;29;20075;-67
2022/04/17 05:05:30;;;;;;;3.17;2.15;;;;;;;8.28;44.25;101892.66;4030683;29;20041;-66
2022/04/17 05:07:33;;;;;;;4.95;2.20;;;;;;;8.32;44.16;101896.25;4026686;29;20037;-66
2022/04/17 05:09:38;;;;;;;4.18;2.20;;;;;;;8.30;43.99;101891.00;4028707;29;20135;-66
2022/04/17 05:11:41;;;;;;;6.18;2.40;;;;;;;8.26;44.69;101885.63;4029521;29;20048;-66
2022/04/17 05:13:44;;;;;;;6.40;2.42;;;;;;;8.29;44.70;101884.03;4030518;29;20047;-69
2022/04/17 05:15:47;;;;;;;4.10;2.30;;;;;;;8.35;44.30;101876.56;4025874;29;20049;-70
2022/04/17 05:17:50;;;;;;;4.47;2.30;;;;;;;8.41;43.95;101883.75;4030973;29;20064;-72
2022/04/17 05:19:53;;;;;;;4.40;2.10;;;;;;;8.39;43.87;101891.41;4032083;29;20053;-73
2022/04/17 05:21:58;;;;;;;5.78;2.30;;;;;;;8.43;43.57;101882.09;4027185;29;20037;-71
2022/04/17 05:24:02;;;;;;;4.93;2.20;;;;;;;8.38;43.68;101879.31;4028216;29;20049;-71
2022/04/17 05:26:06;;;;;;;3.45;2.08;;;;;;;8.39;43.73;101896.59;4029571;29;20041;-72
2022/04/17 05:28:09;;;;;;;5.03;2.40;;;;;;;8.43;43.64;101883.81;4031599;29;20037;-72
2022/04/17 05:30:12;;;;;;;4.82;2.35;;;;;;;8.49;44.08;101887.59;4029531;29;20136;-71
2022/04/17 05:32:15;;;;;;;7.88;2.35;;;;;;;8.54;43.78;101880.03;4033928;29;20041;-71
2022/04/17 05:34:18;;;;;;;4.85;2.45;;;;;;;8.59;43.28;101888.91;4022874;29;20093;-72
2022/04/17 05:36:21;;;;;;;4.05;2.33;;;;;;;8.57;43.85;101898.28;4023492;29;20073;-71
2022/04/17 05:38:24;;;;;;;4.05;2.30;;;;;;;8.56;43.44;101894.84;4038447;29;20064;-71
2022/04/17 05:40:27;;;;;;;5.40;2.55;;;;;;;8.56;43.61;101897.41;4033868;29;20045;-72
2022/04/17 05:42:31;;;;;;;5.70;1.85;;;;;;;8.70;43.35;101895.47;4029579;29;20049;-70
2022/04/17 05:44:37;;;;;;;4.20;2.03;;;;;;;8.69;43.00;101898.88;4033598;29;20416;-71
2022/04/17 05:46:41;;;;;;;3.60;2.00;;;;;;;8.71;42.78;101898.94;4022060;29;20076;-71
2022/04/17 05:48:44;;;;;;;3.95;2.17;;;;;;;8.72;42.73;101898.13;4043386;29;20137;-71
2022/04/17 05:50:47;;;;;;;3.97;2.33;;;;;;;8.68;42.98;101894.50;4023400;29;20148;-71
2022/04/17 05:52:51;;;;;;;3.95;2.20;;;;;;;8.72;42.81;101886.03;4023387;29;20045;-71
2022/04/17 05:54:54;;;;;;;4.03;2.33;;;;;;;8.72;42.92;101886.03;4023400;29;20048;-71
2022/04/17 05:56:57;;;;;;;3.88;2.00;;;;;;;8.77;42.77;101888.84;4006838;29;20049;-71
2022/04/17 05:59:01;;;;;;;5.47;2.30;;;;;;;8.83;42.53;101885.63;4032630;29;20056;-71
2022/04/17 06:01:04;;;;;;;3.60;2.53;;;;;;;8.70;42.83;101887.69;4034618;29;20075;-71
2022/04/17 06:03:07;;;;;;;4.18;1.90;;;;;;;8.73;42.85;101889.50;4023517;29;20128;-71
2022/04/17 06:05:11;;;;;;;5.30;2.42;;;;;;;8.85;42.71;101886.59;4022015;29;20056;-71
2022/04/17 06:07:14;;;;;;;4.15;2.50;;;;;;;8.85;42.83;101889.19;4047201;29;20504;-71
2022/04/17 06:09:17;;;;;;;3.42;2.35;;;;;;;8.88;42.93;101891.94;4008205;29;20045;-71
2022/04/17 06:11:19;;;;;;;3.13;2.20;;;;;;;8.94;43.22;101887.00;4032208;29;20044;-71
2022/04/17 06:13:22;;;;;;;7.35;2.70;;;;;;;9.07;43.10;101883.25;4031318;29;20128;-71
2022/04/17 06:15:27;;;;;;;5.05;2.67;;;;;;;9.14;43.14;101881.78;4037500;29;20040;-71
2022/04/17 06:17:36;;;;;;;3.97;2.58;;;;;;;9.14;43.42;101884.38;4033958;29;20070;-70
2022/04/17 06:19:39;;;;;;;2.78;2.03;;;;;;;9.13;43.35;101883.50;4034055;29;20060;-70
2022/04/17 06:21:42;;;;;;;8.32;2.40;;;;;;;9.16;43.68;101887.94;4027447;29;20496;-71
2022/04/17 06:23:45;;;;;;;3.67;2.40;;;;;;;9.33;42.51;101881.75;4025432;29;20048;-71
2022/04/17 06:25:48;;;;;;;4.30;2.00;;;;;;;9.42;42.07;101887.31;4033143;29;20048;-71
2022/04/17 06:27:50;;;;;;;3.60;2.15;;;;;;;9.44;42.07;101890.84;4031843;29;20108;-71
2022/04/17 06:29:53;;;;;;;4.95;2.03;;;;;;;9.55;41.34;101885.22;4023084;29;20487;-71
2022/04/17 06:31:58;;;;;;;3.80;2.17;;;;;;;9.62;40.83;101882.06;4046089;29;20043;-71
2022/04/17 06:34:01;;;;;;;5.00;2.42;;;;;;;9.58;41.33;101880.19;4032088;29;20049;-71
2022/04/17 06:36:05;;;;;;;4.35;2.28;;;;;;;9.81;40.13;101875.91;4034748;29;20330;-71
2022/04/17 06:38:10;;;;;;;5.90;2.47;;;;;;;9.75;40.44;101875.66;4021359;29;20041;-71
2022/04/17 06:40:16;;;;;;;5.30;2.22;;;;;;;9.75;40.75;101876.56;4025992;29;20045;-70
2022/04/17 06:42:19;;;;;;;5.70;2.72;;;;;;;9.81;40.56;101869.84;4026065;29;20044;-70
2022/04/17 06:44:23;;;;;;;5.53;2.33;;;;;;;9.93;40.03;101871.22;4029890;29;20055;-70
2022/04/17 06:46:26;;;;;;;5.53;2.30;;;;;;;9.90;40.33;101865.00;4040091;29;20048;-71
2022/04/17 06:48:30;;;;;;;4.88;2.92;;;;;;;9.91;40.18;101866.78;4029597;29;20109;-71
2022/04/17 06:50:33;;;;;;;6.20;2.03;;;;;;;9.86;40.55;101864.00;4029840;29;20085;-70
2022/04/17 06:52:36;;;;;;;4.53;1.88;;;;;;;10.16;39.68;101862.53;4035837;29;20049;-70
2022/04/17 06:54:45;;;;;;;7.18;2.60;;;;;;;10.18;39.10;101853.97;4024571;29;20053;-71
2022/04/17 06:56:48;;;;;;;3.90;2.20;;;;;;;10.14;39.69;101859.88;4025322;29;20041;-70
2022/04/17 06:58:52;;;;;;;4.57;2.45;;;;;;;10.20;39.68;101860.13;4034396;29;20082;-72
2022/04/17 07:00:55;;;;;;;3.72;2.17;;;;;;;10.45;38.35;101864.59;4027085;29;20080;-73
2022/04/17 07:02:58;;;;;;;3.25;2.00;;;;;;;10.39;38.34;101866.06;4032550;29;20101;-71
2022/04/17 07:05:02;;;;;;;4.95;2.33;;;;;;;10.39;38.73;101858.25;4031792;29;20064;-72
2022/04/17 07:07:05;;;;;;;4.28;1.95;;;;;;;10.27;39.14;101861.25;4039436;29;20049;-72
2022/04/17 07:09:08;;;;;;;4.70;2.53;;;;;;;10.36;39.70;101864.22;4045322;29;20139;-72
2022/04/17 07:11:11;;;;;;;4.65;2.08;;;;;;;10.52;39.38;101860.47;4035634;29;20492;-72
2022/04/17 07:13:15;;;;;;;3.28;1.90;;;;;;;10.54;38.43;101860.53;4039341;29;20045;-71
2022/04/17 07:15:19;;;;;;;4.70;1.95;;;;;;;10.57;38.25;101860.63;4025786;29;20145;-72
2022/04/17 07:17:23;;;;;;;4.07;2.00;;;;;;;10.71;39.00;101848.16;4034194;29;20440;-71
2022/04/17 07:19:26;;;;;;;4.20;2.40;;;;;;;10.78;38.44;101840.63;4026593;29;20301;-71
2022/04/17 07:21:30;;;;;;;4.07;2.25;;;;;;;10.92;38.19;101837.59;4025269;29;20098;-72
2022/04/17 07:23:33;;;;;;;4.13;2.10;;;;;;;10.88;38.31;101838.31;4035184;29;20131;-65
2022/04/17 07:25:37;;;;;;;6.32;2.00;;;;;;;11.00;38.45;101836.16;4035422;29;20128;-65
2022/04/17 07:27:41;;;;;;;5.05;1.83;;;;;;;11.03;38.44;101838.00;4041119;29;20410;-64
2022/04/17 07:29:44;;;;;;;6.03;2.08;;;;;;;11.09;37.75;101835.59;4036377;29;20500;-64
2022/04/17 07:31:48;;;;;;;3.20;1.35;;;;;;;11.22;37.68;101829.09;4030378;29;20508;-64
2022/04/17 07:33:51;;;;;;;4.32;1.73;;;;;;;11.49;35.92;101824.81;4025031;29;20532;-64
2022/04/17 07:35:54;;;;;;;4.40;2.13;;;;;;;11.64;35.46;101833.94;4022781;29;20055;-64
2022/04/17 07:38:00;;;;;;;8.02;1.80;;;;;;;11.56;35.29;101832.81;4022824;29;20592;-69
2022/04/17 07:40:03;;;;;;;3.30;1.60;;;;;;;11.36;36.05;101830.44;4033633;29;20472;-73
2022/04/17 07:42:06;;;;;;;4.28;1.63;;;;;;;11.32;36.11;101831.19;4052482;29;20048;-71
2022/04/17 07:44:10;;;;;;;3.03;1.80;;;;;;;11.47;36.90;101831.66;4032417;29;20136;-75
2022/04/17 07:46:13;;;;;;;3.88;2.15;;;;;;;11.65;36.33;101830.50;4033148;29;20046;-74
2022/04/17 07:48:16;;;;;;;2.92;1.70;;;;;;;11.74;35.47;101822.97;4023070;29;20476;-70
2022/04/17 07:50:23;;;;;;;3.17;1.85;;;;;;;11.73;34.93;101822.94;4022530;29;20537;-73
2022/04/17 07:52:26;;;;;;;3.72;1.92;;;;;;;11.85;35.06;101821.56;4021869;29;20473;-73
2022/04/17 07:54:30;;;;;;;3.53;1.90;;;;;;;11.96;35.39;101821.94;4027324;29;20469;-74
2022/04/17 07:56:33;;;;;;;3.10;1.90;;;;;;;11.81;35.02;101809.31;4044270;29;20388;-72
2022/04/17 07:58:37;;;;;;;4.80;1.80;;;;;;;11.79;35.59;101805.75;4053554;29;20495;-70
2022/04/17 08:00:46;;;;;;;3.25;1.63;;;;;;;11.89;36.79;101806.94;4025863;29;20523;-70
2022/04/17 08:02:55;;;;;;;4.90;1.65;;;;;;;11.99;36.42;101797.72;4022689;29;20508;-68
2022/04/17 08:04:58;;;;;;;4.95;1.83;;;;;;;12.15;37.01;101799.03;4044629;29;20048;-67
2022/04/17 08:07:01;;;;;;;5.03;1.80;;;;;;;12.36;34.57;101788.34;4053115;29;20570;-68
2022/04/17 08:09:04;;;;;;;6.03;1.70;;;;;;;12.56;34.11;101781.94;4063522;29;20036;-67
2022/04/17 08:11:12;;;;;;;4.85;1.63;;;;;;;12.36;34.72;101780.53;4028265;29;20080;-67
2022/04/17 08:13:15;;;;;;;2.92;1.67;;;;;;;12.29;35.42;101786.41;4028709;29;20408;-68
2022/04/17 08:15:18;;;;;;;4.05;1.55;;;;;;;12.35;35.85;101786.56;4022745;29;20045;-68
2022/04/17 08:17:21;;;;;;;3.10;1.38;;;;;;;12.57;34.39;101782.81;4028559;29;20403;-67
2022/04/17 08:19:24;;;;;;;2.67;1.80;;;;;;;12.54;35.09;101781.03;4036582;29;20446;-67
2022/04/17 08:21:27;;;;;;;2.95;1.50;;;;;;;12.61;35.42;101782.06;4025132;29;20431;-67
2022/04/17 08:23:31;;;;;;;2.13;1.40;;;;;;;12.62;34.61;101764.72;4023887;29;20477;-60
2022/04/17 08:25:38;;;;;;;2.22;1.55;;;;;;;12.85;34.43;101768.81;4023581;29;20406;-59
2022/04/17 08:27:47;;;;;;;3.45;1.48;;;;;;;12.81;34.74;101768.69;4029421;29;20442;-62
2022/04/17 08:29:50;;;;;;;2.85;1.40;;;;;;;12.81;35.13;101763.47;4052497;29;20139;-62
2022/04/17 08:31:54;;;;;;;3.40;1.17;;;;;;;12.83;34.05;101756.56;4032981;29;21852;-62
2022/04/17 08:33:57;;;;;;;3.42;1.33;;;;;;;12.98;34.25;101769.09;4038579;29;20416;-60
2022/04/17 08:36:00;;;;;;;3.50;1.40;;;;;;;13.10;32.81;101765.09;4037403;29;20571;-60
2022/04/17 08:38:04;;;;;;;3.20;1.35;;;;;;;12.98;33.58;101769.09;4039326;29;20048;-60
2022/04/17 08:40:08;;;;;;;2.67;1.60;;;;;;;13.03;33.68;101771.00;4029421;29;20049;-60
2022/04/17 08:42:11;;;;;;;3.70;1.77;;;;;;;13.20;33.45;101768.81;4022133;29;20485;-60
2022/04/17 08:44:17;;;;;;;4.45;1.73;;;;;;;13.30;32.37;101766.41;4025360;29;20049;-60
2022/04/17 08:46:20;;;;;;;1.92;1.30;;;;;;;13.31;32.94;101763.84;4037723;29;20049;-60
2022/04/17 08:48:23;;;;;;;3.80;1.88;;;;;;;13.37;32.63;101753.56;4039013;29;20127;-60
2022/04/17 08:50:26;;;;;;;2.92;1.50;;;;;;;13.51;31.80;101753.91;4033381;29;20385;-60
2022/04/17 08:52:33;;;;;;;3.38;1.38;;;;;;;13.49;30.90;101747.75;4021701;29;20872;-60
2022/04/17 08:54:38;;;;;;;4.63;1.88;;;;;;;13.32;32.46;101749.06;4028575;29;20591;-60
2022/04/17 08:56:41;;;;;;;8.45;1.95;;;;;;;13.59;31.48;101747.13;4026416;29;20053;-60
2022/04/17 08:58:44;;;;;;;2.42;1.55;;;;;;;13.56;30.67;101744.41;4027804;29;21919;-60
2022/04/17 09:00:48;;;;;;;2.90;1.70;;;;;;;13.41;30.79;101731.91;4027104;29;20414;-59
2022/04/17 09:02:55;;;;;;;3.05;1.80;;;;;;;13.37;31.69;101740.50;4026941;29;20141;-58
2022/04/17 09:04:59;;;;;;;3.58;1.45;;;;;;;13.37;32.73;101743.13;4028225;29;20412;-60
2022/04/17 09:07:02;;;;;;;2.85;1.58;;;;;;;13.84;31.85;101731.94;4029933;29;20052;-60
2022/04/17 09:09:06;;;;;;;3.08;1.42;;;;;;;13.93;30.70;101728.66;4034037;29;20045;-59
2022/04/17 09:11:10;;;;;;;4.03;2.25;;;;;;;13.61;31.95;101728.88;4028332;29;20563;-59
2022/04/17 09:13:13;;;;;;;3.20;1.60;;;;;;;13.61;31.47;101726.25;4029326;29;20419;-59
2022/04/17 09:15:16;;;;;;;3.17;1.58;;;;;;;13.65;32.04;101727.19;4031828;29;20453;-59
2022/04/17 09:17:20;;;;;;;2.40;1.45;;;;;;;13.83;31.19;101721.47;4029758;29;20043;-59
2022/04/17 09:19:26;;;;;;;3.58;1.90;;;;;;;13.87;31.16;101721.59;4028567;29;20064;-59
2022/04/17 09:21:32;;;;;;;3.05;1.70;;;;;;;13.72;32.32;101724.72;4035812;29;20038;-59
2022/04/17 09:23:37;;;;;;;3.45;1.95;;;;;;;13.81;32.13;101725.78;4035855;29;20380;-59
2022/04/17 09:25:40;;;;;;;;;;;;;;;13.97;31.57;101722.63;4035453;29;20414;-59
2022/04/17 09:27:58;;;;;;;3.08;1.90;;;;;;;14.11;30.41;101715.97;4036137;29;20267;-59
2022/04/17 09:30:01;;;;;;;3.50;1.30;;;;;;;14.11;31.35;101722.94;4037043;29;20072;-59
2022/04/17 09:32:06;;;;;;;2.85;1.52;;;;;;;14.12;32.27;101711.63;4035909;29;20038;-60
2022/04/17 09:34:11;;;;;;;6.07;1.98;;;;;;;14.37;30.25;101714.69;4036628;29;20037;-59
2022/04/17 09:36:13;;;;;;;3.25;1.70;;;;;;;14.14;30.82;101702.06;4029390;29;20109;-59
2022/04/17 09:38:17;;;;;;;3.22;1.50;;;;;;;14.15;31.41;101703.84;4047089;29;20080;-59
2022/04/17 09:40:20;;;;;;;2.22;1.48;;;;;;;14.24;31.72;101708.38;4033175;29;20149;-59
2022/04/17 09:42:25;;;;;;;3.30;1.90;;;;;;;14.26;31.90;101696.19;4036375;29;20574;-59
2022/04/17 09:44:46;;;;;;;4.13;2.17;;;;;;;14.53;31.61;101700.16;4039732;29;20481;-60
2022/04/17 09:46:57;;;;;;;2.25;1.33;;;;;;;14.65;31.57;101693.44;4037640;29;20036;-59
2022/04/17 09:49:02;;;;;;;5.80;2.03;;;;;;;14.87;29.76;101691.19;4040090;29;20044;-59
2022/04/17 09:51:22;;;;;;;3.75;1.90;;;;;;;14.70;30.50;101688.28;4039723;29;20475;-60
2022/04/17 09:53:38;;;;;;;2.47;1.60;;;;;;;14.69;30.38;101690.88;4033738;29;20144;-60
2022/04/17 09:55:42;;;;;;;2.80;1.60;;;;;;;14.80;29.46;101691.94;4037525;29;20067;-59